ΕΜΥ, Εθνική Μετεωρολογική Υπηρεσία - Δελτία Καιρού, Προγνώσεις

ΑΕΡΟΝΑΥΤΙΛΙΑ

GREEK AIRPORTS CODES

LGTP 202000Z AUTO VRB02KT //// // ////// 21/17 Q1014 RE//=

EUROPEAN AIRPORTS CODES

LFPO 202000Z 29007KT 9999 FEW020 SCT063 BKN093 18/15 Q1013NOSIG=